Aérodrome :
LOGIN :

S'inscrire | Disclaimer

   EN    FR    IT 

 










Légende :    VFR   VFR Marginal   IFR   IFR Intensif   IFR Très Intensif
Visi : 
Plafond : 
>= 8 km
>= 3000ft
5 à 8 km
1000 à 3000 ft
1500m à 5 km
500 à 1000 ft
800 à 1500m
200 à 500 ft
< 800m
< 200 ft
Symboles :   Orages  Brouillard  Fortes neiges  Fortes précipitations  Vent > 20 kt
SIGMETs :   Divers  Orages  Givrage  Turbulence  Onde Orograph.  Cendres Volcan.







- Altitude de l'aérodrome : 90 ft
- Code IATA : NTE
- Voir les cartes d'approche


LFRS - Nantes

DERNIER METAR :
  • 190730Z AUTO VRB02KT CAVOK 21/14 Q1016 TEMPO 4000 -SHRA SCT060CB

METARs EXPIRÉS :
  • 190700Z AUTO VRB03KT CAVOK 19/14 Q1016 NOSIG
  • 190630Z AUTO VRB02KT CAVOK 19/14 Q1016 NOSIG
  • 190600Z AUTO 00000KT CAVOK 18/14 Q1016 NOSIG
  • 190530Z AUTO 35003KT CAVOK 17/14 Q1016 NOSIG
  • 190500Z AUTO VRB02KT CAVOK 17/13 Q1016 NOSIG

TAF TAF LFRS
Valide du 19 à 06h jusqu'au 20 à 12h UTC


190500Z 1906/2012 VRB03KT CAVOK
FM190900 36005KT 9999 SCT060TCU
TEMPO 1909/2012 4000 -SHRA SCT060CB
PROB30
TEMPO 1913/1921 VRB15G35KT 2500 TSRA BKN060CB
ATIS : +33 2 40 05 12 74
Pas de NOTAMs connus pour ce terrain.
2 SIGMETs publiés pour la FIR Brest (LFRR) :
 
Orages noyés dans la masse
LFRR SIGMET 2 VALID 190700/190900 LFPW
LFRR BREST FIR/UIR EMBD TS FCST WI N4415 W00445 - N4445 W00715 - N4700 W00330 - N4545 W00215 - N4415 W00445 TOP FL330 MOV NE 15KT NC=
Orages noyés dans la masse
LFRR SIGMET 1 VALID 190435/190700 LFPW
LFRR BREST FIR/UIR EMBD TS OBS WI N4430 W00530 - N4445 W00700 - N4600 W00415 - N4530 W00315 - N4430 W00530 TOP FL320 MOV NE 15KT NC=



MET'MAP, la Météo Aéronautique d'un coup d'oeil ! - Copyright ORBIFLY Décembre 2007 - Disclaimer

ORBIFLY MET'MAP TEAM :

Programmation & Développement : Alexandra Zaïnal
Conception & Développement : Baudouin d'Aumeries
Co-Programmation & Développement : Marc-Olivier Méhu
Soutien technique & logistique : Manuel Goepfert

Contact : metmap@orbifly.com




SOURCES & CREDITS :

   NOAA